sensor_id;sensor_type;location;lat;lon;timestamp;P1;durP1;ratioP1;P2;durP2;ratioP2
71360;SDS011;59166;48.908;1.870;2022-12-29T00:03:54;6.28;;;1.20;;
71360;SDS011;59166;48.908;1.870;2022-12-29T00:08:54;4.38;;;1.00;;
71360;SDS011;59166;48.908;1.870;2022-12-29T00:13:57;6.23;;;1.10;;
71360;SDS011;59166;48.908;1.870;2022-12-29T00:18:58;4.03;;;0.82;;
71360;SDS011;59166;48.908;1.870;2022-12-29T00:23:59;2.73;;;0.90;;
71360;SDS011;59166;48.908;1.870;2022-12-29T00:29:01;5.68;;;1.30;;
71360;SDS011;59166;48.908;1.870;2022-12-29T00:34:02;4.32;;;0.98;;
71360;SDS011;59166;48.908;1.870;2022-12-29T00:39:04;5.23;;;0.80;;
71360;SDS011;59166;48.908;1.870;2022-12-29T00:44:25;4.10;;;0.88;;
71360;SDS011;59166;48.908;1.870;2022-12-29T00:49:26;5.57;;;0.90;;
71360;SDS011;59166;48.908;1.870;2022-12-29T00:54:27;4.03;;;1.53;;
71360;SDS011;59166;48.908;1.870;2022-12-29T00:59:30;3.65;;;0.88;;
71360;SDS011;59166;48.908;1.870;2022-12-29T01:04:31;4.37;;;1.10;;
71360;SDS011;59166;48.908;1.870;2022-12-29T01:09:33;7.13;;;0.90;;
71360;SDS011;59166;48.908;1.870;2022-12-29T01:14:35;5.10;;;0.80;;
71360;SDS011;59166;48.908;1.870;2022-12-29T01:19:36;6.50;;;1.13;;
71360;SDS011;59166;48.908;1.870;2022-12-29T01:24:37;7.40;;;0.93;;
71360;SDS011;59166;48.908;1.870;2022-12-29T01:29:39;5.07;;;0.77;;
71360;SDS011;59166;48.908;1.870;2022-12-29T01:34:40;9.05;;;0.88;;
71360;SDS011;59166;48.908;1.870;2022-12-29T01:39:41;7.25;;;0.90;;
71360;SDS011;59166;48.908;1.870;2022-12-29T01:44:53;11.90;;;1.20;;
71360;SDS011;59166;48.908;1.870;2022-12-29T01:49:56;7.05;;;1.17;;
71360;SDS011;59166;48.908;1.870;2022-12-29T01:55:02;1.57;;;0.50;;
71360;SDS011;59166;48.908;1.870;2022-12-29T02:00:08;7.70;;;1.10;;
71360;SDS011;59166;48.908;1.870;2022-12-29T02:05:11;5.80;;;0.80;;
71360;SDS011;59166;48.908;1.870;2022-12-29T02:10:16;9.90;;;1.13;;
71360;SDS011;59166;48.908;1.870;2022-12-29T02:15:21;5.40;;;0.80;;
71360;SDS011;59166;48.908;1.870;2022-12-29T02:20:38;6.22;;;0.88;;
71360;SDS011;59166;48.908;1.870;2022-12-29T02:26:05;5.25;;;1.15;;
71360;SDS011;59166;48.908;1.870;2022-12-29T02:31:22;6.03;;;0.83;;
71360;SDS011;59166;48.908;1.870;2022-12-29T02:36:33;5.53;;;1.10;;
71360;SDS011;59166;48.908;1.870;2022-12-29T02:41:45;6.82;;;0.70;;
71360;SDS011;59166;48.908;1.870;2022-12-29T02:47:13;5.03;;;1.03;;
71360;SDS011;59166;48.908;1.870;2022-12-29T02:52:19;6.38;;;0.90;;
71360;SDS011;59166;48.908;1.870;2022-12-29T02:57:30;7.00;;;0.90;;
71360;SDS011;59166;48.908;1.870;2022-12-29T03:02:38;4.70;;;0.73;;
71360;SDS011;59166;48.908;1.870;2022-12-29T03:07:52;7.03;;;0.80;;
71360;SDS011;59166;48.908;1.870;2022-12-29T03:13:01;6.88;;;0.90;;
71360;SDS011;59166;48.908;1.870;2022-12-29T03:23:17;5.07;;;1.00;;
71360;SDS011;59166;48.908;1.870;2022-12-29T03:28:21;10.20;;;1.00;;
71360;SDS011;59166;48.908;1.870;2022-12-29T03:33:25;8.38;;;0.98;;
71360;SDS011;59166;48.908;1.870;2022-12-29T03:38:32;8.27;;;1.07;;
71360;SDS011;59166;48.908;1.870;2022-12-29T03:43:36;7.07;;;0.90;;
71360;SDS011;59166;48.908;1.870;2022-12-29T03:48:37;7.35;;;0.90;;
71360;SDS011;59166;48.908;1.870;2022-12-29T03:53:39;7.87;;;1.10;;
71360;SDS011;59166;48.908;1.870;2022-12-29T03:58:39;10.25;;;1.02;;
71360;SDS011;59166;48.908;1.870;2022-12-29T04:03:40;7.77;;;1.43;;
71360;SDS011;59166;48.908;1.870;2022-12-29T04:08:42;10.13;;;1.20;;
71360;SDS011;59166;48.908;1.870;2022-12-29T04:13:43;10.57;;;1.10;;
71360;SDS011;59166;48.908;1.870;2022-12-29T04:18:43;6.57;;;1.10;;
71360;SDS011;59166;48.908;1.870;2022-12-29T04:23:45;7.07;;;1.00;;
71360;SDS011;59166;48.908;1.870;2022-12-29T04:28:46;7.22;;;1.25;;
71360;SDS011;59166;48.908;1.870;2022-12-29T04:33:47;9.13;;;1.20;;
71360;SDS011;59166;48.908;1.870;2022-12-29T04:38:49;8.40;;;1.20;;
71360;SDS011;59166;48.908;1.870;2022-12-29T04:43:49;8.27;;;1.20;;
71360;SDS011;59166;48.908;1.870;2022-12-29T04:48:50;6.83;;;1.00;;
71360;SDS011;59166;48.908;1.870;2022-12-29T04:53:53;6.40;;;0.93;;
71360;SDS011;59166;48.908;1.870;2022-12-29T04:58:53;6.97;;;1.20;;
71360;SDS011;59166;48.908;1.870;2022-12-29T05:03:54;7.40;;;1.10;;
71360;SDS011;59166;48.908;1.870;2022-12-29T05:08:56;5.10;;;0.97;;
71360;SDS011;59166;48.908;1.870;2022-12-29T05:13:56;6.72;;;1.10;;
71360;SDS011;59166;48.908;1.870;2022-12-29T05:18:57;10.40;;;1.37;;
71360;SDS011;59166;48.908;1.870;2022-12-29T05:23:59;4.07;;;0.80;;
71360;SDS011;59166;48.908;1.870;2022-12-29T05:29:00;6.40;;;1.17;;
71360;SDS011;59166;48.908;1.870;2022-12-29T05:34:01;5.15;;;0.88;;
71360;SDS011;59166;48.908;1.870;2022-12-29T05:39:03;6.27;;;1.00;;
71360;SDS011;59166;48.908;1.870;2022-12-29T05:44:04;9.32;;;1.23;;
71360;SDS011;59166;48.908;1.870;2022-12-29T05:49:05;7.80;;;1.17;;
71360;SDS011;59166;48.908;1.870;2022-12-29T05:54:07;11.33;;;1.20;;
71360;SDS011;59166;48.908;1.870;2022-12-29T05:59:08;8.52;;;1.30;;
71360;SDS011;59166;48.908;1.870;2022-12-29T06:04:09;10.90;;;1.23;;
71360;SDS011;59166;48.908;1.870;2022-12-29T06:09:11;7.38;;;1.13;;
71360;SDS011;59166;48.908;1.870;2022-12-29T06:14:12;5.13;;;1.00;;
71360;SDS011;59166;48.908;1.870;2022-12-29T06:19:13;8.60;;;1.33;;
71360;SDS011;59166;48.908;1.870;2022-12-29T06:24:15;12.97;;;1.87;;
71360;SDS011;59166;48.908;1.870;2022-12-29T06:29:16;7.57;;;0.97;;
71360;SDS011;59166;48.908;1.870;2022-12-29T06:34:17;10.13;;;1.30;;
71360;SDS011;59166;48.908;1.870;2022-12-29T06:39:19;11.63;;;1.73;;
71360;SDS011;59166;48.908;1.870;2022-12-29T06:44:20;9.90;;;1.35;;
71360;SDS011;59166;48.908;1.870;2022-12-29T06:49:21;10.00;;;1.50;;
71360;SDS011;59166;48.908;1.870;2022-12-29T06:54:24;7.00;;;0.87;;
71360;SDS011;59166;48.908;1.870;2022-12-29T06:59:24;6.45;;;0.70;;
71360;SDS011;59166;48.908;1.870;2022-12-29T07:04:25;11.07;;;1.27;;
71360;SDS011;59166;48.908;1.870;2022-12-29T07:09:28;5.25;;;0.68;;
71360;SDS011;59166;48.908;1.870;2022-12-29T07:14:29;11.80;;;1.53;;
71360;SDS011;59166;48.908;1.870;2022-12-29T07:19:30;10.67;;;1.30;;
71360;SDS011;59166;48.908;1.870;2022-12-29T07:24:32;9.70;;;1.15;;
71360;SDS011;59166;48.908;1.870;2022-12-29T07:29:33;8.40;;;1.10;;
71360;SDS011;59166;48.908;1.870;2022-12-29T07:34:34;8.70;;;1.10;;
71360;SDS011;59166;48.908;1.870;2022-12-29T07:39:36;8.17;;;1.27;;
71360;SDS011;59166;48.908;1.870;2022-12-29T07:44:37;8.40;;;1.02;;
71360;SDS011;59166;48.908;1.870;2022-12-29T07:49:38;6.95;;;1.30;;
71360;SDS011;59166;48.908;1.870;2022-12-29T07:54:40;7.47;;;1.40;;
71360;SDS011;59166;48.908;1.870;2022-12-29T07:59:41;7.10;;;1.10;;
71360;SDS011;59166;48.908;1.870;2022-12-29T08:04:41;6.03;;;1.00;;
71360;SDS011;59166;48.908;1.870;2022-12-29T08:09:44;13.57;;;1.58;;
71360;SDS011;59166;48.908;1.870;2022-12-29T08:14:44;8.07;;;1.37;;
71360;SDS011;59166;48.908;1.870;2022-12-29T08:19:45;10.60;;;1.30;;
71360;SDS011;59166;48.908;1.870;2022-12-29T08:24:47;11.27;;;2.27;;
71360;SDS011;59166;48.908;1.870;2022-12-29T08:29:48;11.85;;;1.90;;
71360;SDS011;59166;48.908;1.870;2022-12-29T08:34:49;8.83;;;1.50;;
71360;SDS011;59166;48.908;1.870;2022-12-29T08:39:51;12.02;;;1.65;;
71360;SDS011;59166;48.908;1.870;2022-12-29T08:44:52;14.17;;;1.50;;
71360;SDS011;59166;48.908;1.870;2022-12-29T08:49:53;6.13;;;1.00;;
71360;SDS011;59166;48.908;1.870;2022-12-29T08:54:55;11.47;;;1.70;;
71360;SDS011;59166;48.908;1.870;2022-12-29T08:59:56;9.80;;;1.35;;
71360;SDS011;59166;48.908;1.870;2022-12-29T09:04:57;14.85;;;1.45;;
71360;SDS011;59166;48.908;1.870;2022-12-29T09:09:59;11.83;;;1.60;;
71360;SDS011;59166;48.908;1.870;2022-12-29T09:15:00;13.15;;;1.80;;
71360;SDS011;59166;48.908;1.870;2022-12-29T09:20:01;10.33;;;1.57;;
71360;SDS011;59166;48.908;1.870;2022-12-29T09:25:04;12.13;;;1.85;;
71360;SDS011;59166;48.908;1.870;2022-12-29T09:30:06;13.40;;;1.63;;
71360;SDS011;59166;48.908;1.870;2022-12-29T09:35:08;12.17;;;1.77;;
71360;SDS011;59166;48.908;1.870;2022-12-29T09:40:20;13.48;;;2.20;;
71360;SDS011;59166;48.908;1.870;2022-12-29T09:45:26;11.13;;;1.40;;
71360;SDS011;59166;48.908;1.870;2022-12-29T09:50:34;14.07;;;1.57;;
71360;SDS011;59166;48.908;1.870;2022-12-29T09:55:39;14.33;;;1.77;;
71360;SDS011;59166;48.908;1.870;2022-12-29T10:00:47;14.80;;;1.75;;
71360;SDS011;59166;48.908;1.870;2022-12-29T10:05:52;14.13;;;1.35;;
71360;SDS011;59166;48.908;1.870;2022-12-29T10:11:03;14.07;;;1.60;;
71360;SDS011;59166;48.908;1.870;2022-12-29T10:16:13;14.90;;;2.00;;
71360;SDS011;59166;48.908;1.870;2022-12-29T10:21:21;10.90;;;1.60;;
71360;SDS011;59166;48.908;1.870;2022-12-29T10:26:33;11.43;;;1.83;;
71360;SDS011;59166;48.908;1.870;2022-12-29T10:31:39;13.45;;;1.65;;
71360;SDS011;59166;48.908;1.870;2022-12-29T10:36:43;16.38;;;1.83;;
71360;SDS011;59166;48.908;1.870;2022-12-29T10:41:49;14.77;;;1.97;;
71360;SDS011;59166;48.908;1.870;2022-12-29T10:46:56;16.30;;;1.70;;
71360;SDS011;59166;48.908;1.870;2022-12-29T10:52:00;13.75;;;2.00;;
71360;SDS011;59166;48.908;1.870;2022-12-29T10:57:05;10.90;;;1.77;;
71360;SDS011;59166;48.908;1.870;2022-12-29T11:02:19;10.90;;;1.37;;
71360;SDS011;59166;48.908;1.870;2022-12-29T11:07:34;13.00;;;1.40;;
71360;SDS011;59166;48.908;1.870;2022-12-29T11:12:37;11.48;;;1.55;;
71360;SDS011;59166;48.908;1.870;2022-12-29T11:17:42;12.67;;;1.87;;
71360;SDS011;59166;48.908;1.870;2022-12-29T11:22:45;12.73;;;1.70;;
71360;SDS011;59166;48.908;1.870;2022-12-29T11:27:55;14.63;;;1.48;;
71360;SDS011;59166;48.908;1.870;2022-12-29T11:32:58;9.07;;;1.90;;
71360;SDS011;59166;48.908;1.870;2022-12-29T11:38:20;11.63;;;1.58;;
71360;SDS011;59166;48.908;1.870;2022-12-29T11:43:26;14.75;;;1.77;;
71360;SDS011;59166;48.908;1.870;2022-12-29T11:48:46;14.33;;;1.77;;
71360;SDS011;59166;48.908;1.870;2022-12-29T11:53:48;16.48;;;1.80;;
71360;SDS011;59166;48.908;1.870;2022-12-29T11:58:52;11.07;;;1.50;;
71360;SDS011;59166;48.908;1.870;2022-12-29T12:03:56;12.07;;;1.60;;
71360;SDS011;59166;48.908;1.870;2022-12-29T12:09:04;10.57;;;1.70;;
71360;SDS011;59166;48.908;1.870;2022-12-29T12:14:15;16.25;;;2.08;;
71360;SDS011;59166;48.908;1.870;2022-12-29T12:19:24;11.40;;;1.70;;
71360;SDS011;59166;48.908;1.870;2022-12-29T12:24:37;11.10;;;1.83;;
71360;SDS011;59166;48.908;1.870;2022-12-29T12:29:45;11.50;;;1.50;;
71360;SDS011;59166;48.908;1.870;2022-12-29T12:34:53;10.52;;;1.88;;
71360;SDS011;59166;48.908;1.870;2022-12-29T12:40:03;13.57;;;1.70;;
71360;SDS011;59166;48.908;1.870;2022-12-29T12:45:30;11.73;;;1.33;;
71360;SDS011;59166;48.908;1.870;2022-12-29T12:50:46;10.73;;;1.70;;
71360;SDS011;59166;48.908;1.870;2022-12-29T12:55:58;10.73;;;1.57;;
71360;SDS011;59166;48.908;1.870;2022-12-29T13:01:32;7.32;;;1.23;;
71360;SDS011;59166;48.908;1.870;2022-12-29T13:12:23;15.50;;;2.00;;
71360;SDS011;59166;48.908;1.870;2022-12-29T13:17:36;13.30;;;2.00;;
71360;SDS011;59166;48.908;1.870;2022-12-29T13:22:47;11.02;;;1.50;;
71360;SDS011;59166;48.908;1.870;2022-12-29T13:28:10;12.27;;;1.53;;
71360;SDS011;59166;48.908;1.870;2022-12-29T13:33:40;10.23;;;1.40;;
71360;SDS011;59166;48.908;1.870;2022-12-29T13:38:48;12.70;;;1.83;;
71360;SDS011;59166;48.908;1.870;2022-12-29T13:43:55;13.20;;;1.63;;
71360;SDS011;59166;48.908;1.870;2022-12-29T13:49:00;13.10;;;1.60;;
71360;SDS011;59166;48.908;1.870;2022-12-29T13:54:09;9.85;;;1.98;;
71360;SDS011;59166;48.908;1.870;2022-12-29T13:59:19;12.98;;;1.70;;
71360;SDS011;59166;48.908;1.870;2022-12-29T14:04:41;8.93;;;1.30;;
71360;SDS011;59166;48.908;1.870;2022-12-29T14:09:56;8.57;;;1.40;;
71360;SDS011;59166;48.908;1.870;2022-12-29T14:15:05;8.88;;;1.50;;
71360;SDS011;59166;48.908;1.870;2022-12-29T14:20:19;11.60;;;1.53;;
71360;SDS011;59166;48.908;1.870;2022-12-29T14:30:56;12.18;;;1.50;;
71360;SDS011;59166;48.908;1.870;2022-12-29T14:41:24;13.90;;;1.63;;
71360;SDS011;59166;48.908;1.870;2022-12-29T14:46:55;11.27;;;1.20;;
71360;SDS011;59166;48.908;1.870;2022-12-29T14:52:08;11.00;;;1.45;;
71360;SDS011;59166;48.908;1.870;2022-12-29T14:57:30;9.70;;;1.37;;
71360;SDS011;59166;48.908;1.870;2022-12-29T15:02:39;10.10;;;1.40;;
71360;SDS011;59166;48.908;1.870;2022-12-29T15:07:45;8.48;;;1.30;;
71360;SDS011;59166;48.908;1.870;2022-12-29T15:12:47;10.10;;;1.43;;
71360;SDS011;59166;48.908;1.870;2022-12-29T15:17:52;9.07;;;1.35;;
71360;SDS011;59166;48.908;1.870;2022-12-29T15:22:56;6.38;;;1.20;;
71360;SDS011;59166;48.908;1.870;2022-12-29T15:27:59;9.57;;;1.30;;
71360;SDS011;59166;48.908;1.870;2022-12-29T15:33:02;10.77;;;1.50;;
71360;SDS011;59166;48.908;1.870;2022-12-29T15:38:14;11.45;;;1.50;;
71360;SDS011;59166;48.908;1.870;2022-12-29T15:43:21;8.55;;;1.30;;
71360;SDS011;59166;48.908;1.870;2022-12-29T15:48:45;10.13;;;1.50;;
71360;SDS011;59166;48.908;1.870;2022-12-29T15:53:48;10.82;;;1.50;;
71360;SDS011;59166;48.908;1.870;2022-12-29T15:58:51;10.95;;;1.50;;
71360;SDS011;59166;48.908;1.870;2022-12-29T16:03:53;9.80;;;1.57;;
71360;SDS011;59166;48.908;1.870;2022-12-29T16:08:59;9.40;;;1.42;;
71360;SDS011;59166;48.908;1.870;2022-12-29T16:14:01;8.85;;;1.45;;
71360;SDS011;59166;48.908;1.870;2022-12-29T16:19:09;12.20;;;1.60;;
71360;SDS011;59166;48.908;1.870;2022-12-29T16:24:15;12.53;;;1.43;;
71360;SDS011;59166;48.908;1.870;2022-12-29T16:29:19;11.50;;;1.67;;
71360;SDS011;59166;48.908;1.870;2022-12-29T16:34:23;9.93;;;1.70;;
71360;SDS011;59166;48.908;1.870;2022-12-29T16:39:30;12.73;;;2.80;;
71360;SDS011;59166;48.908;1.870;2022-12-29T16:44:33;8.45;;;1.80;;
71360;SDS011;59166;48.908;1.870;2022-12-29T16:49:34;13.87;;;2.00;;
71360;SDS011;59166;48.908;1.870;2022-12-29T16:54:38;9.67;;;1.87;;
71360;SDS011;59166;48.908;1.870;2022-12-29T16:59:40;6.38;;;1.10;;
71360;SDS011;59166;48.908;1.870;2022-12-29T17:04:42;13.75;;;1.85;;
71360;SDS011;59166;48.908;1.870;2022-12-29T17:09:44;10.80;;;2.00;;
71360;SDS011;59166;48.908;1.870;2022-12-29T17:14:45;11.27;;;2.00;;
71360;SDS011;59166;48.908;1.870;2022-12-29T17:19:50;10.27;;;1.93;;
71360;SDS011;59166;48.908;1.870;2022-12-29T17:24:56;11.07;;;2.20;;
71360;SDS011;59166;48.908;1.870;2022-12-29T17:29:58;11.23;;;2.20;;
71360;SDS011;59166;48.908;1.870;2022-12-29T17:35:20;8.07;;;1.80;;
71360;SDS011;59166;48.908;1.870;2022-12-29T17:40:24;10.37;;;2.20;;
71360;SDS011;59166;48.908;1.870;2022-12-29T17:45:27;11.85;;;3.08;;
71360;SDS011;59166;48.908;1.870;2022-12-29T17:50:29;14.50;;;3.10;;
71360;SDS011;59166;48.908;1.870;2022-12-29T17:55:32;17.40;;;2.70;;
71360;SDS011;59166;48.908;1.870;2022-12-29T18:00:33;8.88;;;2.63;;
71360;SDS011;59166;48.908;1.870;2022-12-29T18:05:34;9.15;;;2.45;;
71360;SDS011;59166;48.908;1.870;2022-12-29T18:10:37;13.23;;;3.23;;
71360;SDS011;59166;48.908;1.870;2022-12-29T18:15:38;17.77;;;2.72;;
71360;SDS011;59166;48.908;1.870;2022-12-29T18:20:39;13.37;;;3.13;;
71360;SDS011;59166;48.908;1.870;2022-12-29T18:25:44;20.13;;;7.43;;
71360;SDS011;59166;48.908;1.870;2022-12-29T18:30:48;16.08;;;5.20;;
71360;SDS011;59166;48.908;1.870;2022-12-29T18:35:50;15.87;;;4.90;;
71360;SDS011;59166;48.908;1.870;2022-12-29T18:40:56;15.30;;;4.38;;
71360;SDS011;59166;48.908;1.870;2022-12-29T18:45:57;11.52;;;2.90;;
71360;SDS011;59166;48.908;1.870;2022-12-29T18:50:58;14.00;;;2.77;;
71360;SDS011;59166;48.908;1.870;2022-12-29T18:56:00;14.35;;;2.80;;
71360;SDS011;59166;48.908;1.870;2022-12-29T19:01:01;13.23;;;2.37;;
71360;SDS011;59166;48.908;1.870;2022-12-29T19:06:02;15.57;;;2.83;;
71360;SDS011;59166;48.908;1.870;2022-12-29T19:11:05;11.98;;;2.45;;
71360;SDS011;59166;48.908;1.870;2022-12-29T19:16:07;10.40;;;2.43;;
71360;SDS011;59166;48.908;1.870;2022-12-29T19:21:12;11.55;;;2.92;;
71360;SDS011;59166;48.908;1.870;2022-12-29T19:26:19;15.02;;;3.42;;
71360;SDS011;59166;48.908;1.870;2022-12-29T19:31:27;15.90;;;2.83;;
71360;SDS011;59166;48.908;1.870;2022-12-29T19:36:28;14.07;;;2.88;;
71360;SDS011;59166;48.908;1.870;2022-12-29T19:41:30;15.13;;;2.90;;
71360;SDS011;59166;48.908;1.870;2022-12-29T19:46:31;15.68;;;3.45;;
71360;SDS011;59166;48.908;1.870;2022-12-29T19:51:31;18.97;;;3.50;;
71360;SDS011;59166;48.908;1.870;2022-12-29T19:56:34;15.18;;;2.97;;
71360;SDS011;59166;48.908;1.870;2022-12-29T20:01:34;13.27;;;2.80;;
71360;SDS011;59166;48.908;1.870;2022-12-29T20:06:35;11.83;;;2.57;;
71360;SDS011;59166;48.908;1.870;2022-12-29T20:11:37;16.03;;;2.63;;
71360;SDS011;59166;48.908;1.870;2022-12-29T20:16:38;16.08;;;2.58;;
71360;SDS011;59166;48.908;1.870;2022-12-29T20:21:39;11.03;;;2.60;;
71360;SDS011;59166;48.908;1.870;2022-12-29T20:26:42;16.25;;;2.92;;
71360;SDS011;59166;48.908;1.870;2022-12-29T20:31:42;12.18;;;3.00;;
71360;SDS011;59166;48.908;1.870;2022-12-29T20:36:45;13.73;;;2.60;;
71360;SDS011;59166;48.908;1.870;2022-12-29T20:41:49;14.73;;;2.97;;
71360;SDS011;59166;48.908;1.870;2022-12-29T20:46:50;12.00;;;2.60;;
71360;SDS011;59166;48.908;1.870;2022-12-29T20:51:51;15.10;;;3.88;;
71360;SDS011;59166;48.908;1.870;2022-12-29T20:56:53;11.60;;;3.00;;
71360;SDS011;59166;48.908;1.870;2022-12-29T21:01:54;16.30;;;3.45;;
71360;SDS011;59166;48.908;1.870;2022-12-29T21:06:55;13.30;;;2.60;;
71360;SDS011;59166;48.908;1.870;2022-12-29T21:11:58;18.33;;;2.90;;
71360;SDS011;59166;48.908;1.870;2022-12-29T21:16:58;12.60;;;3.00;;
71360;SDS011;59166;48.908;1.870;2022-12-29T21:21:59;11.37;;;2.67;;
71360;SDS011;59166;48.908;1.870;2022-12-29T21:27:02;15.48;;;2.30;;
71360;SDS011;59166;48.908;1.870;2022-12-29T21:32:03;12.73;;;2.30;;
71360;SDS011;59166;48.908;1.870;2022-12-29T21:37:04;11.65;;;2.40;;
71360;SDS011;59166;48.908;1.870;2022-12-29T21:42:06;11.10;;;2.22;;
71360;SDS011;59166;48.908;1.870;2022-12-29T21:47:07;11.73;;;2.07;;
71360;SDS011;59166;48.908;1.870;2022-12-29T21:52:08;13.23;;;2.45;;
71360;SDS011;59166;48.908;1.870;2022-12-29T21:57:10;12.07;;;2.60;;
71360;SDS011;59166;48.908;1.870;2022-12-29T22:02:15;16.17;;;2.67;;
71360;SDS011;59166;48.908;1.870;2022-12-29T22:07:18;12.60;;;2.50;;
71360;SDS011;59166;48.908;1.870;2022-12-29T22:12:20;10.97;;;2.60;;
71360;SDS011;59166;48.908;1.870;2022-12-29T22:17:21;13.73;;;3.03;;
71360;SDS011;59166;48.908;1.870;2022-12-29T22:22:22;10.20;;;2.13;;
71360;SDS011;59166;48.908;1.870;2022-12-29T22:27:24;11.93;;;2.40;;
71360;SDS011;59166;48.908;1.870;2022-12-29T22:32:25;11.20;;;2.27;;
71360;SDS011;59166;48.908;1.870;2022-12-29T22:37:26;12.00;;;2.50;;
71360;SDS011;59166;48.908;1.870;2022-12-29T22:42:28;10.07;;;2.67;;
71360;SDS011;59166;48.908;1.870;2022-12-29T22:47:29;9.73;;;2.28;;
71360;SDS011;59166;48.908;1.870;2022-12-29T22:52:29;9.97;;;2.50;;
71360;SDS011;59166;48.908;1.870;2022-12-29T22:57:32;11.43;;;2.70;;
71360;SDS011;59166;48.908;1.870;2022-12-29T23:02:33;18.55;;;2.80;;
71360;SDS011;59166;48.908;1.870;2022-12-29T23:07:34;12.83;;;2.43;;
71360;SDS011;59166;48.908;1.870;2022-12-29T23:12:36;10.73;;;2.28;;
71360;SDS011;59166;48.908;1.870;2022-12-29T23:17:37;10.37;;;2.23;;
71360;SDS011;59166;48.908;1.870;2022-12-29T23:22:38;11.85;;;2.42;;
71360;SDS011;59166;48.908;1.870;2022-12-29T23:27:40;11.93;;;2.30;;
71360;SDS011;59166;48.908;1.870;2022-12-29T23:32:41;11.35;;;2.55;;
71360;SDS011;59166;48.908;1.870;2022-12-29T23:37:41;11.87;;;2.33;;
71360;SDS011;59166;48.908;1.870;2022-12-29T23:42:44;9.32;;;2.50;;
71360;SDS011;59166;48.908;1.870;2022-12-29T23:47:45;12.10;;;2.50;;
71360;SDS011;59166;48.908;1.870;2022-12-29T23:52:45;12.43;;;2.50;;
71360;SDS011;59166;48.908;1.870;2022-12-29T23:57:48;12.23;;;2.80;;
